Airfield :







YOU CAN JOIN US ON...

 
LOGIN :

Register | Disclaimer

   EN    FR    IT 

 









Legend :    VFR   Marginal VFR   IFR   Intensive IFR   Very Intensive IFR
Visi :
Ceiling :
>= 8 km
>= 3000ft
5 to 8 km
1000 to 3000 ft
1500m to 5 km
500 to 1000 ft
800 to 1500m
200 to 500 ft
< 800m
< 200 ft
Symbols :   Thunderstorms  Fog  Heavy snow  Heavy precipitations  Wind > 20 kt






- Airport Elevation : 84 ft
- IATA code : YJT


CYJT - Stephenville

CURRENT METAR :
  • 131600Z 33015KT 15SM FEW028 BKN035 12/06 A2975 RMK CU2SC4 SLP076

EXPIRED METARs :
  • 131500Z 30011G16KT 15SM FEW012 SCT025 BKN031 11/07 A2974 RMK SF1CU2SC3 SLP073
  • 131400Z 26012G17KT 15SM FEW012 SCT025 12/09 A2973 RMK ST1SC3 SLP070

TAF TAF CYJT
Valid from the 13 at 12:00 until the 14 at 12:00 UTC


131143Z 1312/1412 VRB03KT P6SM SCT020 OVC070
TEMPO 1312/1315 4SM -SHRA BR SCT005 OVC020
PROB30 1312/1315 2SM -RA -DZ BR OVC005
FM131500 28012KT P6SM BKN015
BECMG 1315/1317 FEW015
FM131900 28012KT P6SM -SHRA BKN020
FM140100 29008KT P6SM FEW008 BKN015
FM140800 27006KT 6SM BR FEW004 OVC008 RMK NXT FCST BY 131800Z
CZQX FIR / North America



MET'MAP, your aeronautical weather chart ! - Copyright ORBIFLY December 2007 - Disclaimer

ORBIFLY MET'MAP TEAM :

Programming & Development : Alexandra Zaïnal
Concept & original design : Baudouin d'Aumeries
Assistance for programming : Marc-Olivier Méhu
Technical & hardware support : Manuel Goepfert

Contact : metmap@orbifly.com




SOURCES & CREDITS :

   NOAA